Time,TemperatureF,DewpointF,PressureIn,WindDirection,WindDirectionDegrees,WindSpeedMPH,WindSpeedGustMPH,Humidity,HourlyPrecipIn,Conditions,Clouds,dailyrainin,SoftwareType,DateUTC
2013-02-14 00:00:00,30.6,30.4,29.60,North,7,3.0,10.0,99,0.00,,SKC,0.09,VWS V14.01,2013-02-14 06:00:00,
2013-02-14 00:05:00,30.6,30.4,29.60,NNE,31,7.0,10.0,99,0.00,,SKC,0.00,VWS V14.01,2013-02-14 06:05:00,
2013-02-14 00:10:00,30.6,30.4,29.60,North,8,6.0,10.0,99,0.00,,SKC,0.00,VWS V14.01,2013-02-14 06:10:00,
2013-02-14 00:15:00,30.7,30.5,29.60,NNE,18,5.0,8.0,99,0.00,,SKC,0.00,VWS V14.01,2013-02-14 06:15:00,
2013-02-14 00:20:00,30.7,30.5,29.60,NNE,30,7.0,8.0,99,0.00,,SKC,0.00,VWS V14.01,2013-02-14 06:20:00,
2013-02-14 00:25:00,30.7,30.5,29.60,North,6,7.0,9.0,99,0.00,,SKC,0.00,VWS V14.01,2013-02-14 06:25:00,
2013-02-14 00:30:00,30.7,30.5,29.61,North,352,7.0,9.0,99,0.00,,SKC,0.00,VWS V14.01,2013-02-14 06:30:00,
2013-02-14 00:35:00,30.7,30.5,29.61,NNE,24,5.0,11.0,99,0.00,,SKC,0.00,VWS V14.01,2013-02-14 06:35:00,
2013-02-14 00:40:00,30.7,30.5,29.61,North,4,8.0,11.0,99,0.00,,SKC,0.00,VWS V14.01,2013-02-14 06:40:00,
2013-02-14 00:45:00,30.7,30.7,29.62,NNE,24,2.0,9.0,100,0.00,,SKC,0.00,VWS V14.01,2013-02-14 06:45:00,
2013-02-14 00:50:00,30.6,30.6,29.62,NE,37,10.0,10.0,100,0.00,,SKC,0.00,VWS V14.01,2013-02-14 06:50:00,
2013-02-14 00:55:00,30.6,30.6,29.62,NNE,16,2.0,12.0,100,0.00,,SKC,0.00,VWS V14.01,2013-02-14 06:55:00,
2013-02-14 01:00:00,30.6,30.6,29.63,NNE,23,6.0,12.0,100,0.00,,SKC,0.00,VWS V14.01,2013-02-14 07:00:00,
2013-02-14 01:05:00,30.4,30.4,29.63,NNE,32,7.0,12.0,100,0.00,,SKC,0.00,VWS V14.01,2013-02-14 07:05:00,
2013-02-14 01:10:00,30.1,29.9,29.63,NNE,30,7.0,13.0,99,0.00,,SKC,0.00,VWS V14.01,2013-02-14 07:10:00,
2013-02-14 01:15:00,29.8,29.5,29.64,NE,42,10.0,17.0,99,0.00,,SKC,0.00,VWS V14.01,2013-02-14 07:15:00,
2013-02-14 01:19:00,29.7,29.5,29.64,East,79,1.0,17.0,99,0.00,,SKC,0.00,VWS V14.01,2013-02-14 07:19:00,
2013-02-14 01:24:00,29.5,29.5,29.64,North,3,3.0,10.0,100,0.00,,SKC,0.00,VWS V14.01,2013-02-14 07:24:00,
2013-02-14 01:29:00,29.4,29.4,29.65,SSE,158,0.0,11.0,100,0.00,,SKC,0.00,VWS V14.01,2013-02-14 07:29:00,
2013-02-14 01:34:00,29.1,29.1,29.65,ENE,65,4.0,10.0,100,0.00,,SKC,0.00,VWS V14.01,2013-02-14 07:34:00,
2013-02-14 01:39:00,28.8,28.8,29.65,NE,37,4.0,10.0,100,0.00,,SKC,0.00,VWS V14.01,2013-02-14 07:39:00,
2013-02-14 01:44:00,28.5,28.2,29.65,NE,54,1.0,8.0,99,0.00,,SKC,0.00,VWS V14.01,2013-02-14 07:44:00,
2013-02-14 01:49:00,28.2,28.0,29.65,NE,34,6.0,8.0,99,0.00,,SKC,0.00,VWS V14.01,2013-02-14 07:49:00,
2013-02-14 01:54:00,28.1,27.9,29.65,NNE,32,2.0,5.0,99,0.00,,SKC,0.00,VWS V14.01,2013-02-14 07:54:00,
2013-02-14 01:59:00,27.9,27.7,29.66,NNE,14,3.0,5.0,99,0.00,,SKC,0.00,VWS V14.01,2013-02-14 07:59:00,
2013-02-14 02:04:00,27.8,27.6,29.66,NE,37,1.0,6.0,99,0.00,,SKC,0.00,VWS V14.01,2013-02-14 08:04:00,
2013-02-14 02:09:00,27.5,27.3,29.66,NNE,25,5.0,6.0,99,0.00,,SKC,0.00,VWS V14.01,2013-02-14 08:09:00,
2013-02-14 02:14:00,27.2,26.7,29.67,NNE,23,3.0,6.0,98,0.00,,SKC,0.00,VWS V14.01,2013-02-14 08:14:00,
2013-02-14 02:19:00,27.0,26.5,29.67,North,8,3.0,6.0,98,0.00,,SKC,0.00,VWS V14.01,2013-02-14 08:19:00,
2013-02-14 02:24:00,26.9,26.4,29.67,NNE,23,6.0,6.0,98,0.00,,SKC,0.00,VWS V14.01,2013-02-14 08:24:00,
2013-02-14 02:29:00,26.9,26.4,29.69,North,4,6.0,10.0,98,0.00,,SKC,0.00,VWS V14.01,2013-02-14 08:29:00,
2013-02-14 02:34:00,26.9,26.4,29.69,North,0,5.0,10.0,98,0.00,,SKC,0.00,VWS V14.01,2013-02-14 08:34:00,
2013-02-14 02:39:00,26.7,26.2,29.69,NNE,16,1.0,10.0,98,0.00,,SKC,0.00,VWS V14.01,2013-02-14 08:39:00,
2013-02-14 02:44:00,26.7,26.2,29.70,North,11,5.0,8.0,98,0.00,,SKC,0.00,VWS V14.01,2013-02-14 08:44:00,
2013-02-14 02:49:00,26.7,26.2,29.70,NNE,23,3.0,8.0,98,0.00,,SKC,0.00,VWS V14.01,2013-02-14 08:49:00,
2013-02-14 02:54:00,26.6,25.9,29.70,NNE,24,2.0,7.0,97,0.00,,SKC,0.00,VWS V14.01,2013-02-14 08:54:00,
2013-02-14 02:59:00,26.6,25.9,29.70,North,1,6.0,7.0,97,0.00,,SKC,0.00,VWS V14.01,2013-02-14 08:59:00,
2013-02-14 03:04:00,26.4,25.7,29.70,NE,34,6.0,6.0,97,0.00,,SKC,0.00,VWS V14.01,2013-02-14 09:04:00,
2013-02-14 03:09:00,26.4,25.7,29.70,NNE,14,2.0,6.0,97,0.00,,SKC,0.00,VWS V14.01,2013-02-14 09:09:00,
2013-02-14 03:14:00,26.3,25.6,29.71,NNE,27,1.0,7.0,97,0.00,,SKC,0.00,VWS V14.01,2013-02-14 09:14:00,
2013-02-14 03:19:00,26.0,25.3,29.71,NNE,20,3.0,7.0,97,0.00,,SKC,0.00,VWS V14.01,2013-02-14 09:19:00,
2013-02-14 03:24:00,26.0,25.3,29.71,North,8,1.0,6.0,97,0.00,,SKC,0.00,VWS V14.01,2013-02-14 09:24:00,
2013-02-14 03:29:00,25.8,25.1,29.71,North,6,2.0,6.0,97,0.00,,SKC,0.00,VWS V14.01,2013-02-14 09:29:00,
2013-02-14 03:34:00,25.7,25.0,29.71,NNE,16,3.0,6.0,97,0.00,,SKC,0.00,VWS V14.01,2013-02-14 09:34:00,
2013-02-14 03:39:00,25.7,25.0,29.71,North,4,2.0,6.0,97,0.00,,SKC,0.00,VWS V14.01,2013-02-14 09:39:00,
2013-02-14 03:44:00,25.7,25.0,29.72,North,0,4.0,5.0,97,0.00,,SKC,0.00,VWS V14.01,2013-02-14 09:44:00,
2013-02-14 03:49:00,25.8,25.1,29.72,North,8,3.0,6.0,97,0.00,,SKC,0.00,VWS V14.01,2013-02-14 09:49:00,
2013-02-14 03:54:00,25.8,25.1,29.72,North,11,2.0,6.0,97,0.00,,SKC,0.00,VWS V14.01,2013-02-14 09:54:00,
2013-02-14 03:59:00,25.7,25.0,29.72,North,10,2.0,7.0,97,0.00,,SKC,0.00,VWS V14.01,2013-02-14 09:59:00,
2013-02-14 04:04:00,25.4,24.4,29.72,North,0,5.0,6.0,96,0.00,,SKC,0.00,VWS V14.01,2013-02-14 10:04:00,
2013-02-14 04:09:00,25.4,24.7,29.72,North,0,2.0,6.0,97,0.00,,SKC,0.00,VWS V14.01,2013-02-14 10:09:00,
2013-02-14 04:14:00,25.3,24.3,29.73,North,0,2.0,5.0,96,0.00,,SKC,0.00,VWS V14.01,2013-02-14 10:14:00,
2013-02-14 04:19:00,25.3,24.3,29.73,North,359,6.0,7.0,96,0.00,,SKC,0.00,VWS V14.01,2013-02-14 10:19:00,
2013-02-14 04:24:00,25.3,24.3,29.73,North,1,2.0,5.0,96,0.00,,SKC,0.00,VWS V14.01,2013-02-14 10:24:00,
2013-02-14 04:29:00,25.3,24.3,29.74,NNW,342,3.0,6.0,96,0.00,,SKC,0.00,VWS V14.01,2013-02-14 10:29:00,
2013-02-14 04:34:00,25.3,24.3,29.74,North,356,2.0,6.0,96,0.00,,SKC,0.00,VWS V14.01,2013-02-14 10:34:00,
2013-02-14 04:39:00,25.1,24.1,29.74,NNW,337,6.0,6.0,96,0.00,,SKC,0.00,VWS V14.01,2013-02-14 10:39:00,
2013-02-14 04:44:00,25.1,24.1,29.74,North,352,6.0,7.0,96,0.00,,SKC,0.00,VWS V14.01,2013-02-14 10:44:00,
2013-02-14 04:49:00,24.8,23.8,29.74,North,356,3.0,7.0,96,0.00,,SKC,0.00,VWS V14.01,2013-02-14 10:49:00,
2013-02-14 04:54:00,24.7,23.7,29.74,North,0,7.0,7.0,96,0.00,,SKC,0.00,VWS V14.01,2013-02-14 10:54:00,
2013-02-14 04:59:00,24.5,23.5,29.75,NNW,342,2.0,7.0,96,0.00,,SKC,0.00,VWS V14.01,2013-02-14 10:59:00,
2013-02-14 05:04:00,24.5,23.5,29.75,North,352,3.0,7.0,96,0.00,,SKC,0.00,VWS V14.01,2013-02-14 11:04:00,
2013-02-14 05:09:00,24.4,23.4,29.75,NNW,343,2.0,7.0,96,0.00,,SKC,0.00,VWS V14.01,2013-02-14 11:09:00,
2013-02-14 05:14:00,24.5,23.5,29.75,North,354,2.0,7.0,96,0.00,,SKC,0.00,VWS V14.01,2013-02-14 11:14:00,
2013-02-14 05:19:00,24.7,23.7,29.75,North,354,2.0,8.0,96,0.00,,SKC,0.00,VWS V14.01,2013-02-14 11:19:00,
2013-02-14 05:24:00,24.4,23.2,29.75,NNW,333,6.0,7.0,95,0.00,,SKC,0.00,VWS V14.01,2013-02-14 11:24:00,
2013-02-14 05:29:00,24.1,22.9,29.76,NNW,347,6.0,8.0,95,0.00,,SKC,0.00,VWS V14.01,2013-02-14 11:29:00,
2013-02-14 05:34:00,24.1,22.9,29.76,North,356,4.0,7.0,95,0.00,,SKC,0.00,VWS V14.01,2013-02-14 11:34:00,
2013-02-14 05:39:00,24.1,22.9,29.76,NNW,339,4.0,7.0,95,0.00,,SKC,0.00,VWS V14.01,2013-02-14 11:39:00,
2013-02-14 05:44:00,24.1,22.9,29.77,North,350,10.0,10.0,95,0.00,,SKC,0.00,VWS V14.01,2013-02-14 11:44:00,
2013-02-14 05:49:00,23.9,22.7,29.77,North,352,4.0,10.0,95,0.00,,SKC,0.00,VWS V14.01,2013-02-14 11:49:00,
2013-02-14 05:54:00,23.6,22.4,29.77,North,352,5.0,7.0,95,0.00,,SKC,0.00,VWS V14.01,2013-02-14 11:54:00,
2013-02-14 05:59:00,23.5,22.3,29.77,NNW,347,5.0,7.0,95,0.00,,SKC,0.00,VWS V14.01,2013-02-14 11:59:00,
2013-02-14 06:04:00,23.2,21.7,29.77,NNW,336,7.0,8.0,94,0.00,,SKC,0.00,VWS V14.01,2013-02-14 12:04:00,
2013-02-14 06:09:00,23.2,21.7,29.77,North,349,3.0,10.0,94,0.00,,SKC,0.00,VWS V14.01,2013-02-14 12:09:00,
2013-02-14 06:14:00,22.9,21.4,29.78,NNW,340,2.0,7.0,94,0.00,,SKC,0.00,VWS V14.01,2013-02-14 12:14:00,
2013-02-14 06:19:00,22.5,21.0,29.78,NNW,340,4.0,7.0,94,0.00,,SKC,0.00,VWS V14.01,2013-02-14 12:19:00,
2013-02-14 06:24:00,22.4,20.9,29.78,North,0,3.0,7.0,94,0.00,,SKC,0.00,VWS V14.01,2013-02-14 12:24:00,
2013-02-14 06:29:00,22.4,20.9,29.78,North,359,5.0,7.0,94,0.00,,SKC,0.00,VWS V14.01,2013-02-14 12:29:00,
2013-02-14 06:34:00,22.1,20.6,29.78,North,0,5.0,7.0,94,0.00,,SKC,0.00,VWS V14.01,2013-02-14 12:34:00,
2013-02-14 06:39:00,22.1,20.6,29.78,North,356,6.0,7.0,94,0.00,,SKC,0.00,VWS V14.01,2013-02-14 12:39:00,
2013-02-14 06:44:00,22.1,20.6,29.78,North,359,5.0,7.0,94,0.00,,SKC,0.00,VWS V14.01,2013-02-14 12:44:00,
2013-02-14 06:49:00,22.1,20.6,29.78,North,0,4.0,8.0,94,0.00,,SKC,0.00,VWS V14.01,2013-02-14 12:49:00,
2013-02-14 06:54:00,22.1,20.6,29.78,North,359,5.0,7.0,94,0.00,,SKC,0.00,VWS V14.01,2013-02-14 12:54:00,
2013-02-14 06:59:00,22.1,20.6,29.78,North,0,5.0,7.0,94,0.00,,SKC,0.00,VWS V14.01,2013-02-14 12:59:00,
2013-02-14 07:04:00,22.1,20.6,29.78,North,359,7.0,8.0,94,0.00,,SKC,0.00,VWS V14.01,2013-02-14 13:04:00,
2013-02-14 07:09:00,22.1,20.4,29.78,North,0,6.0,8.0,93,0.00,,SKC,0.00,VWS V14.01,2013-02-14 13:09:00,
2013-02-14 07:14:00,22.1,20.4,29.78,North,357,3.0,7.0,93,0.00,,SKC,0.00,VWS V14.01,2013-02-14 13:14:00,
2013-02-14 07:19:00,22.1,20.4,29.79,North,359,3.0,7.0,93,0.00,,SKC,0.00,VWS V14.01,2013-02-14 13:19:00,
2013-02-14 07:24:00,22.1,20.1,29.79,North,0,5.0,6.0,92,0.00,,SKC,0.00,VWS V14.01,2013-02-14 13:24:00,
2013-02-14 07:29:00,22.1,20.1,29.79,North,0,5.0,8.0,92,0.00,,SKC,0.00,VWS V14.01,2013-02-14 13:29:00,
2013-02-14 07:34:00,22.1,20.1,29.80,North,354,6.0,7.0,92,0.00,,SKC,0.00,VWS V14.01,2013-02-14 13:34:00,
2013-02-14 07:39:00,22.1,20.1,29.80,North,349,4.0,7.0,92,0.00,,SKC,0.00,VWS V14.01,2013-02-14 13:39:00,
2013-02-14 07:44:00,21.8,19.8,29.80,NNW,337,5.0,7.0,92,0.00,,SKC,0.00,VWS V14.01,2013-02-14 13:44:00,
2013-02-14 07:49:00,21.6,19.6,29.81,North,356,3.0,7.0,92,0.00,,SKC,0.00,VWS V14.01,2013-02-14 13:49:00,
2013-02-14 07:54:00,21.6,19.6,29.81,North,359,6.0,7.0,92,0.00,,SKC,0.00,VWS V14.01,2013-02-14 13:54:00,
2013-02-14 07:59:00,21.4,19.4,29.81,North,0,4.0,8.0,92,0.00,,SKC,0.00,VWS V14.01,2013-02-14 13:59:00,
2013-02-14 08:04:00,21.4,19.2,29.82,North,8,2.0,7.0,91,0.00,,SKC,0.00,VWS V14.01,2013-02-14 14:04:00,
2013-02-14 08:09:00,21.1,18.9,29.82,NNE,31,2.0,7.0,91,0.00,,SKC,0.00,VWS V14.01,2013-02-14 14:09:00,
2013-02-14 08:14:00,20.8,18.6,29.82,North,6,3.0,7.0,91,0.00,,SKC,0.00,VWS V14.01,2013-02-14 14:14:00,
2013-02-14 08:19:00,20.8,18.6,29.82,North,0,3.0,8.0,91,0.00,,SKC,0.00,VWS V14.01,2013-02-14 14:19:00,
2013-02-14 08:24:00,20.6,18.4,29.82,NNE,20,3.0,6.0,91,0.00,,SKC,0.00,VWS V14.01,2013-02-14 14:24:00,
2013-02-14 08:29:00,20.6,18.4,29.82,NNE,13,2.0,6.0,91,0.00,,SKC,0.00,VWS V14.01,2013-02-14 14:29:00,
2013-02-14 08:33:00,20.6,18.4,29.83,North,356,5.0,6.0,91,0.00,,SKC,0.00,VWS V14.01,2013-02-14 14:33:00,
2013-02-14 08:38:00,20.8,18.9,29.83,North,6,4.0,7.0,92,0.00,,SKC,0.00,VWS V14.01,2013-02-14 14:38:00,
2013-02-14 08:43:00,20.8,18.6,29.83,North,3,3.0,7.0,91,0.00,,SKC,0.00,VWS V14.01,2013-02-14 14:43:00,
2013-02-14 08:48:00,20.8,18.6,29.83,North,359,6.0,8.0,91,0.00,,SKC,0.00,VWS V14.01,2013-02-14 14:48:00,
2013-02-14 08:53:00,20.6,18.4,29.83,North,0,5.0,7.0,91,0.00,,SKC,0.00,VWS V14.01,2013-02-14 14:53:00,
2013-02-14 08:58:00,20.6,18.1,29.83,North,0,2.0,8.0,90,0.00,,SKC,0.00,VWS V14.01,2013-02-14 14:58:00,
2013-02-14 09:03:00,20.6,18.1,29.84,North,0,1.0,7.0,90,0.00,,SKC,0.00,VWS V14.01,2013-02-14 15:03:00,
2013-02-14 09:08:00,20.8,18.3,29.84,North,3,4.0,7.0,90,0.00,,SKC,0.00,VWS V14.01,2013-02-14 15:08:00,
2013-02-14 09:13:00,21.0,18.5,29.84,North,0,6.0,9.0,90,0.00,,SKC,0.00,VWS V14.01,2013-02-14 15:13:00,
2013-02-14 09:18:00,21.1,18.6,29.85,North,4,6.0,9.0,90,0.00,,SKC,0.00,VWS V14.01,2013-02-14 15:18:00,
2013-02-14 09:23:00,21.1,18.6,29.85,North,0,7.0,8.0,90,0.00,,SKC,0.00,VWS V14.01,2013-02-14 15:23:00,
2013-02-14 09:28:00,21.3,18.8,29.85,North,7,2.0,8.0,90,0.00,,SKC,0.00,VWS V14.01,2013-02-14 15:28:00,
2013-02-14 09:33:00,21.4,18.9,29.85,NNE,24,2.0,9.0,90,0.00,,SKC,0.00,VWS V14.01,2013-02-14 15:33:00,
2013-02-14 09:38:00,21.6,19.1,29.85,North,3,4.0,9.0,90,0.00,,SKC,0.00,VWS V14.01,2013-02-14 15:38:00,
2013-02-14 09:43:00,21.9,19.2,29.85,North,4,6.0,6.0,89,0.00,,SKC,0.00,VWS V14.01,2013-02-14 15:43:00,
2013-02-14 09:48:00,22.1,19.4,29.85,North,3,6.0,8.0,89,0.00,,SKC,0.00,VWS V14.01,2013-02-14 15:48:00,
2013-02-14 09:53:00,22.1,19.4,29.85,North,1,7.0,10.0,89,0.00,,SKC,0.00,VWS V14.01,2013-02-14 15:53:00,
2013-02-14 09:58:00,22.1,19.1,29.85,North,0,3.0,11.0,88,0.00,,SKC,0.00,VWS V14.01,2013-02-14 15:58:00,
2013-02-14 10:03:00,22.2,19.2,29.86,North,356,7.0,8.0,88,0.00,,SKC,0.00,VWS V14.01,2013-02-14 16:03:00,
2013-02-14 10:08:00,22.2,18.9,29.86,North,1,6.0,8.0,87,0.00,,SKC,0.00,VWS V14.01,2013-02-14 16:08:00,
2013-02-14 10:13:00,22.4,19.1,29.86,North,4,6.0,10.0,87,0.00,,SKC,0.00,VWS V14.01,2013-02-14 16:13:00,
2013-02-14 10:18:00,22.5,19.2,29.87,North,0,7.0,10.0,87,0.00,,SKC,0.00,VWS V14.01,2013-02-14 16:18:00,
2013-02-14 10:23:00,22.5,19.0,29.87,North,8,3.0,7.0,86,0.00,,SKC,0.00,VWS V14.01,2013-02-14 16:23:00,
2013-02-14 10:28:00,22.5,19.0,29.87,NNE,31,6.0,11.0,86,0.00,,SKC,0.00,VWS V14.01,2013-02-14 16:28:00,
2013-02-14 10:33:00,22.7,19.1,29.87,NNE,32,7.0,11.0,86,0.00,,SKC,0.00,VWS V14.01,2013-02-14 16:33:00,
2013-02-14 10:38:00,23.0,19.2,29.87,NE,42,5.0,11.0,85,0.00,,SKC,0.00,VWS V14.01,2013-02-14 16:38:00,
2013-02-14 10:43:00,23.3,19.5,29.87,North,0,6.0,12.0,85,0.00,,SKC,0.00,VWS V14.01,2013-02-14 16:43:00,
2013-02-14 10:48:00,23.5,19.4,29.88,North,6,6.0,12.0,84,0.00,,SKC,0.00,VWS V14.01,2013-02-14 16:48:00,
2013-02-14 10:53:00,23.3,19.2,29.88,North,8,9.0,11.0,84,0.00,,SKC,0.00,VWS V14.01,2013-02-14 16:53:00,
2013-02-14 10:58:00,23.3,18.9,29.88,NE,35,6.0,14.0,83,0.00,,SKC,0.00,VWS V14.01,2013-02-14 16:58:00,
2013-02-14 11:03:00,23.5,18.5,29.88,NNE,28,3.0,10.0,81,0.00,,SKC,0.00,VWS V14.01,2013-02-14 17:03:00,
2013-02-14 11:08:00,23.3,18.3,29.88,NNE,13,4.0,12.0,81,0.00,,SKC,0.00,VWS V14.01,2013-02-14 17:08:00,
2013-02-14 11:13:00,23.0,17.5,29.88,NNE,30,5.0,11.0,79,0.00,,SKC,0.00,VWS V14.01,2013-02-14 17:13:00,
2013-02-14 11:18:00,23.2,18.0,29.89,North,0,3.0,11.0,80,0.00,,SKC,0.00,VWS V14.01,2013-02-14 17:18:00,
2013-02-14 11:23:00,23.2,17.4,29.89,North,10,10.0,10.0,78,0.00,,SKC,0.00,VWS V14.01,2013-02-14 17:23:00,
2013-02-14 11:28:00,23.0,17.2,29.89,North,6,6.0,14.0,78,0.00,,SKC,0.00,VWS V14.01,2013-02-14 17:28:00,
2013-02-14 11:33:00,22.9,17.1,29.89,North,4,6.0,10.0,78,0.00,,SKC,0.00,VWS V14.01,2013-02-14 17:33:00,
2013-02-14 11:38:00,23.0,16.9,29.89,NNE,32,11.0,12.0,77,0.00,,SKC,0.00,VWS V14.01,2013-02-14 17:38:00,
2013-02-14 11:43:00,23.0,16.6,29.89,NNE,27,11.0,11.0,76,0.00,,SKC,0.00,VWS V14.01,2013-02-14 17:43:00,
2013-02-14 11:48:00,23.0,16.3,29.90,NE,37,6.0,11.0,75,0.00,,SKC,0.00,VWS V14.01,2013-02-14 17:48:00,
2013-02-14 11:53:00,23.6,16.9,29.90,North,11,8.0,12.0,75,0.00,,SKC,0.00,VWS V14.01,2013-02-14 17:53:00,
2013-02-14 11:58:00,23.6,16.2,29.90,North,356,6.0,13.0,73,0.00,,SKC,0.00,VWS V14.01,2013-02-14 17:58:00,
2013-02-14 12:03:00,23.9,16.5,29.91,North,3,7.0,11.0,73,0.00,,SKC,0.00,VWS V14.01,2013-02-14 18:03:00,
2013-02-14 12:08:00,24.4,16.7,29.91,NNE,20,6.0,12.0,72,0.00,,SKC,0.00,VWS V14.01,2013-02-14 18:08:00,
2013-02-14 12:13:00,24.8,16.4,29.91,North,4,6.0,8.0,70,0.00,,SKC,0.00,VWS V14.01,2013-02-14 18:13:00,
2013-02-14 12:18:00,25.0,15.9,29.90,NNE,25,8.0,13.0,68,0.00,,SKC,0.00,VWS V14.01,2013-02-14 18:18:00,
2013-02-14 12:23:00,25.1,15.7,29.90,NE,52,6.0,11.0,67,0.00,,SKC,0.00,VWS V14.01,2013-02-14 18:23:00,
2013-02-14 12:28:00,25.1,16.0,29.90,NE,35,8.0,12.0,68,0.00,,SKC,0.00,VWS V14.01,2013-02-14 18:28:00,
2013-02-14 12:33:00,25.6,16.5,29.91,North,11,3.0,7.0,68,0.00,,SKC,0.00,VWS V14.01,2013-02-14 18:33:00,
2013-02-14 12:38:00,25.3,15.2,29.91,NNE,21,10.0,16.0,65,0.00,,SKC,0.00,VWS V14.01,2013-02-14 18:38:00,
2013-02-14 12:43:00,25.0,14.9,29.91,NNE,20,8.0,12.0,65,0.01,,SKC,0.01,VWS V14.01,2013-02-14 18:43:00,
2013-02-14 12:48:00,25.4,14.6,29.91,NE,34,5.0,12.0,63,0.01,,SKC,0.01,VWS V14.01,2013-02-14 18:48:00,
2013-02-14 12:53:00,25.8,15.0,29.91,North,4,7.0,12.0,63,0.01,,SKC,0.01,VWS V14.01,2013-02-14 18:53:00,
2013-02-14 12:58:00,25.8,14.2,29.91,North,4,8.0,12.0,61,0.01,,SKC,0.01,VWS V14.01,2013-02-14 18:58:00,
2013-02-14 13:03:00,25.4,14.2,29.92,NNE,17,11.0,14.0,62,0.02,,SKC,0.02,VWS V14.01,2013-02-14 19:03:00,
2013-02-14 13:08:00,25.3,13.8,29.92,NNE,32,5.0,17.0,61,0.02,,SKC,0.02,VWS V14.01,2013-02-14 19:08:00,
2013-02-14 13:13:00,25.1,13.9,29.92,North,8,7.0,14.0,62,0.02,,SKC,0.02,VWS V14.01,2013-02-14 19:13:00,
2013-02-14 13:18:00,25.0,13.1,29.93,North,0,8.0,14.0,60,0.02,,SKC,0.02,VWS V14.01,2013-02-14 19:18:00,
2013-02-14 13:23:00,25.0,13.5,29.93,North,4,5.0,11.0,61,0.02,,SKC,0.02,VWS V14.01,2013-02-14 19:23:00,
2013-02-14 13:28:00,25.1,13.2,29.93,North,10,14.0,14.0,60,0.02,,SKC,0.02,VWS V14.01,2013-02-14 19:28:00,
2013-02-14 13:33:00,25.0,13.5,29.93,North,0,8.0,12.0,61,0.02,,SKC,0.02,VWS V14.01,2013-02-14 19:33:00,
2013-02-14 13:38:00,25.0,12.3,29.93,NE,44,8.0,16.0,58,0.03,,SKC,0.03,VWS V14.01,2013-02-14 19:38:00,
2013-02-14 13:43:00,24.8,12.1,29.93,North,3,7.0,13.0,58,0.02,,SKC,0.03,VWS V14.01,2013-02-14 19:43:00,
2013-02-14 13:48:00,24.7,12.4,29.94,North,11,6.0,14.0,59,0.02,,SKC,0.03,VWS V14.01,2013-02-14 19:48:00,
2013-02-14 13:53:00,24.7,12.0,29.94,NNE,27,8.0,13.0,58,0.02,,SKC,0.03,VWS V14.01,2013-02-14 19:53:00,
2013-02-14 13:58:00,24.8,12.1,29.94,North,0,8.0,13.0,58,0.02,,SKC,0.03,VWS V14.01,2013-02-14 19:58:00,
2013-02-14 14:03:00,24.4,12.5,29.95,North,0,10.0,14.0,60,0.01,,SKC,0.03,VWS V14.01,2013-02-14 20:03:00,
2013-02-14 14:08:00,24.5,12.6,29.95,North,3,8.0,14.0,60,0.02,,SKC,0.04,VWS V14.01,2013-02-14 20:08:00,
2013-02-14 14:13:00,24.5,11.9,29.95,North,8,6.0,10.0,58,0.02,,SKC,0.04,VWS V14.01,2013-02-14 20:13:00,
2013-02-14 14:18:00,24.7,11.2,29.96,North,4,6.0,12.0,56,0.02,,SKC,0.04,VWS V14.01,2013-02-14 20:18:00,
2013-02-14 14:23:00,24.4,10.6,29.96,NNE,16,5.0,17.0,55,0.02,,SKC,0.04,VWS V14.01,2013-02-14 20:23:00,
2013-02-14 14:28:00,24.4,11.0,29.96,North,6,8.0,19.0,56,0.02,,SKC,0.04,VWS V14.01,2013-02-14 20:28:00,
2013-02-14 14:33:00,24.2,10.8,29.97,North,11,11.0,18.0,56,0.02,,SKC,0.04,VWS V14.01,2013-02-14 20:33:00,
2013-02-14 14:38:00,24.2,9.1,29.97,NNW,339,6.0,18.0,52,0.02,,SKC,0.04,VWS V14.01,2013-02-14 20:38:00,
2013-02-14 14:43:00,24.1,9.0,29.97,North,356,12.0,12.0,52,0.01,,SKC,0.04,VWS V14.01,2013-02-14 20:43:00,
2013-02-14 14:48:00,23.8,7.0,29.98,NNE,18,3.0,16.0,48,0.01,,SKC,0.04,VWS V14.01,2013-02-14 20:48:00,
2013-02-14 14:53:00,24.1,8.2,29.98,North,3,13.0,13.0,50,0.01,,SKC,0.04,VWS V14.01,2013-02-14 20:53:00,
2013-02-14 14:58:00,24.1,8.2,29.98,North,0,6.0,16.0,50,0.01,,SKC,0.04,VWS V14.01,2013-02-14 20:58:00,
2013-02-14 15:03:00,24.2,6.9,29.99,NNE,27,8.0,13.0,47,0.01,,SKC,0.04,VWS V14.01,2013-02-14 21:03:00,
2013-02-14 15:08:00,24.1,7.3,29.99,NNE,13,12.0,20.0,48,0.01,,SKC,0.04,VWS V14.01,2013-02-14 21:08:00,
2013-02-14 15:13:00,23.9,4.7,29.99,North,6,5.0,12.0,43,0.00,,SKC,0.04,VWS V14.01,2013-02-14 21:13:00,
2013-02-14 15:18:00,23.9,4.7,30.00,North,11,10.0,16.0,43,0.00,,SKC,0.04,VWS V14.01,2013-02-14 21:18:00,
2013-02-14 15:22:00,23.6,5.4,30.00,North,0,7.0,11.0,45,0.00,,SKC,0.04,VWS V14.01,2013-02-14 21:22:00,
2013-02-14 15:27:00,23.3,5.1,30.00,North,0,13.0,18.0,45,0.00,,SKC,0.04,VWS V14.01,2013-02-14 21:27:00,
2013-02-14 15:32:00,23.3,4.1,30.01,North,1,9.0,18.0,43,0.00,,SKC,0.04,VWS V14.01,2013-02-14 21:32:00,
2013-02-14 15:37:00,23.3,5.1,30.01,NNE,25,10.0,18.0,45,0.00,,SKC,0.04,VWS V14.01,2013-02-14 21:37:00,
2013-02-14 15:42:00,23.2,5.0,30.01,North,6,7.0,14.0,45,0.00,,SKC,0.04,VWS V14.01,2013-02-14 21:42:00,
2013-02-14 15:47:00,23.2,4.5,30.01,NNE,14,7.0,19.0,44,0.00,,SKC,0.04,VWS V14.01,2013-02-14 21:47:00,
2013-02-14 15:52:00,23.3,4.6,30.01,North,3,10.0,21.0,44,0.00,,SKC,0.04,VWS V14.01,2013-02-14 21:52:00,
2013-02-14 15:57:00,23.5,3.8,30.01,North,359,6.0,21.0,42,0.00,,SKC,0.04,VWS V14.01,2013-02-14 21:57:00,
2013-02-14 16:02:00,23.5,3.8,30.02,NNE,30,4.0,11.0,42,0.00,,SKC,0.04,VWS V14.01,2013-02-14 22:02:00,
2013-02-14 16:07:00,23.5,4.3,30.02,North,3,8.0,13.0,43,0.00,,SKC,0.04,VWS V14.01,2013-02-14 22:07:00,
2013-02-14 16:12:00,23.6,4.4,30.02,North,8,5.0,12.0,43,0.00,,SKC,0.04,VWS V14.01,2013-02-14 22:12:00,
2013-02-14 16:17:00,23.8,3.0,30.03,NNE,16,7.0,17.0,40,0.00,,SKC,0.04,VWS V14.01,2013-02-14 22:17:00,
2013-02-14 16:22:00,23.6,3.9,30.03,NE,34,5.0,13.0,42,0.00,,SKC,0.04,VWS V14.01,2013-02-14 22:22:00,
2013-02-14 16:27:00,23.2,4.0,30.03,North,8,6.0,14.0,43,0.00,,SKC,0.04,VWS V14.01,2013-02-14 22:27:00,
2013-02-14 16:32:00,23.0,3.8,30.04,NNE,14,5.0,12.0,43,0.00,,SKC,0.04,VWS V14.01,2013-02-14 22:32:00,
2013-02-14 16:37:00,23.0,3.8,30.04,North,11,8.0,14.0,43,0.00,,SKC,0.04,VWS V14.01,2013-02-14 22:37:00,
2013-02-14 16:42:00,22.9,4.3,30.04,NNE,14,3.0,11.0,44,0.00,,SKC,0.04,VWS V14.01,2013-02-14 22:42:00,
2013-02-14 16:47:00,23.2,3.5,30.06,North,0,6.0,12.0,42,0.00,,SKC,0.04,VWS V14.01,2013-02-14 22:47:00,
2013-02-14 16:52:00,23.0,3.8,30.06,NNE,24,10.0,11.0,43,0.00,,SKC,0.04,VWS V14.01,2013-02-14 22:52:00,
2013-02-14 16:57:00,22.9,4.3,30.06,North,0,8.0,12.0,44,0.00,,SKC,0.04,VWS V14.01,2013-02-14 22:57:00,
2013-02-14 17:02:00,22.9,5.7,30.07,North,349,8.0,10.0,47,0.00,,SKC,0.04,VWS V14.01,2013-02-14 23:02:00,
2013-02-14 17:07:00,22.2,5.5,30.07,North,359,8.0,11.0,48,0.00,,SKC,0.04,VWS V14.01,2013-02-14 23:07:00,
2013-02-14 17:12:00,21.8,5.6,30.07,North,0,8.0,14.0,49,0.00,,SKC,0.04,VWS V14.01,2013-02-14 23:12:00,
2013-02-14 17:17:00,21.3,4.7,30.08,NNW,340,7.0,16.0,48,0.00,,SKC,0.04,VWS V14.01,2013-02-14 23:17:00,
2013-02-14 17:22:00,21.3,4.7,30.08,North,1,7.0,14.0,48,0.00,,SKC,0.04,VWS V14.01,2013-02-14 23:22:00,
2013-02-14 17:27:00,21.3,4.2,30.08,North,3,9.0,14.0,47,0.00,,SKC,0.04,VWS V14.01,2013-02-14 23:27:00,
2013-02-14 17:32:00,21.0,4.4,30.09,NNW,343,9.0,12.0,48,0.00,,SKC,0.04,VWS V14.01,2013-02-14 23:32:00,
2013-02-14 17:37:00,20.5,3.9,30.09,North,356,6.0,18.0,48,0.00,,SKC,0.04,VWS V14.01,2013-02-14 23:37:00,
2013-02-14 17:42:00,20.5,3.9,30.09,NNW,336,8.0,11.0,48,0.00,,SKC,0.04,VWS V14.01,2013-02-14 23:42:00,
2013-02-14 17:47:00,20.3,3.8,30.10,North,3,7.0,11.0,48,0.00,,SKC,0.04,VWS V14.01,2013-02-14 23:47:00,
2013-02-14 17:52:00,20.2,4.1,30.10,North,1,6.0,8.0,49,0.00,,SKC,0.04,VWS V14.01,2013-02-14 23:52:00,
2013-02-14 17:57:00,19.9,3.8,30.10,North,0,7.0,12.0,49,0.00,,SKC,0.04,VWS V14.01,2013-02-14 23:57:00,
2013-02-14 18:02:00,19.9,3.8,30.10,North,8,5.0,8.0,49,0.00,,SKC,0.04,VWS V14.01,2013-02-15 00:02:00,
2013-02-14 18:07:00,19.7,3.7,30.10,North,0,6.0,8.0,49,0.00,,SKC,0.04,VWS V14.01,2013-02-15 00:07:00,
2013-02-14 18:12:00,19.5,3.5,30.10,North,0,7.0,7.0,49,0.00,,SKC,0.04,VWS V14.01,2013-02-15 00:12:00,
2013-02-14 18:17:00,19.4,3.4,30.11,North,359,5.0,8.0,49,0.00,,SKC,0.04,VWS V14.01,2013-02-15 00:17:00,
2013-02-14 18:22:00,19.5,3.5,30.11,NNW,343,8.0,9.0,49,0.00,,SKC,0.04,VWS V14.01,2013-02-15 00:22:00,
2013-02-14 18:27:00,19.7,3.2,30.11,NNW,343,5.0,9.0,48,0.00,,SKC,0.04,VWS V14.01,2013-02-15 00:27:00,
2013-02-14 18:32:00,19.7,3.7,30.12,North,353,5.0,11.0,49,0.00,,SKC,0.04,VWS V14.01,2013-02-15 00:32:00,
2013-02-14 18:37:00,19.4,3.4,30.12,North,359,5.0,11.0,49,0.00,,SKC,0.04,VWS V14.01,2013-02-15 00:37:00,
2013-02-14 18:42:00,19.2,3.2,30.12,NNW,346,6.0,7.0,49,0.00,,SKC,0.04,VWS V14.01,2013-02-15 00:42:00,
2013-02-14 18:47:00,19.1,3.5,30.13,NNW,339,8.0,10.0,50,0.00,,SKC,0.04,VWS V14.01,2013-02-15 00:47:00,
2013-02-14 18:52:00,18.8,3.7,30.13,North,0,4.0,7.0,51,0.00,,SKC,0.04,VWS V14.01,2013-02-15 00:52:00,
2013-02-14 18:57:00,18.0,3.3,30.13,NNW,328,6.0,8.0,52,0.00,,SKC,0.04,VWS V14.01,2013-02-15 00:57:00,
2013-02-14 19:02:00,16.5,4.7,30.14,NNW,346,5.0,8.0,59,0.00,,SKC,0.04,VWS V14.01,2013-02-15 01:02:00,
2013-02-14 19:07:00,16.2,4.8,30.14,NNW,344,4.0,10.0,60,0.00,,SKC,0.04,VWS V14.01,2013-02-15 01:07:00,
2013-02-14 19:12:00,16.2,5.1,30.14,NNW,330,5.0,7.0,61,0.00,,SKC,0.04,VWS V14.01,2013-02-15 01:12:00,
2013-02-14 19:17:00,16.2,5.1,30.15,North,349,2.0,7.0,61,0.00,,SKC,0.04,VWS V14.01,2013-02-15 01:17:00,
2013-02-14 19:22:00,16.1,5.0,30.15,North,350,5.0,9.0,61,0.00,,SKC,0.04,VWS V14.01,2013-02-15 01:22:00,
2013-02-14 19:27:00,15.7,5.0,30.15,NNW,333,5.0,9.0,62,0.00,,SKC,0.04,VWS V14.01,2013-02-15 01:27:00,
2013-02-14 19:32:00,15.6,5.3,30.15,North,353,3.0,8.0,63,0.00,,SKC,0.04,VWS V14.01,2013-02-15 01:32:00,
2013-02-14 19:37:00,15.4,5.1,30.15,NNW,346,5.0,11.0,63,0.00,,SKC,0.04,VWS V14.01,2013-02-15 01:37:00,
2013-02-14 19:42:00,15.4,5.4,30.15,North,357,8.0,8.0,64,0.00,,SKC,0.04,VWS V14.01,2013-02-15 01:42:00,
2013-02-14 19:47:00,15.1,5.1,30.16,NNW,342,7.0,11.0,64,0.00,,SKC,0.04,VWS V14.01,2013-02-15 01:47:00,
2013-02-14 19:52:00,14.9,4.9,30.16,North,0,5.0,10.0,64,0.00,,SKC,0.04,VWS V14.01,2013-02-15 01:52:00,
2013-02-14 19:57:00,14.8,4.8,30.16,NNW,342,5.0,13.0,64,0.00,,SKC,0.04,VWS V14.01,2013-02-15 01:57:00,
2013-02-14 20:02:00,14.6,4.7,30.16,North,359,7.0,11.0,64,0.00,,SKC,0.04,VWS V14.01,2013-02-15 02:02:00,
2013-02-14 20:07:00,14.3,4.4,30.16,NW,322,5.0,12.0,64,0.00,,SKC,0.04,VWS V14.01,2013-02-15 02:07:00,
2013-02-14 20:12:00,14.0,4.4,30.16,NNW,347,4.0,7.0,65,0.00,,SKC,0.04,VWS V14.01,2013-02-15 02:12:00,
2013-02-14 20:17:00,13.6,4.0,30.17,North,354,6.0,8.0,65,0.00,,SKC,0.04,VWS V14.01,2013-02-15 02:17:00,
2013-02-14 20:22:00,13.6,4.0,30.17,NW,325,6.0,12.0,65,0.00,,SKC,0.04,VWS V14.01,2013-02-15 02:22:00,
2013-02-14 20:27:00,13.5,3.6,30.17,NNW,342,3.0,12.0,64,0.00,,SKC,0.04,VWS V14.01,2013-02-15 02:27:00,
2013-02-14 20:32:00,13.5,3.6,30.18,North,349,5.0,10.0,64,0.00,,SKC,0.04,VWS V14.01,2013-02-15 02:32:00,
2013-02-14 20:37:00,13.3,3.4,30.18,North,359,3.0,10.0,64,0.00,,SKC,0.04,VWS V14.01,2013-02-15 02:37:00,
2013-02-14 20:42:00,13.1,3.2,30.18,North,350,2.0,12.0,64,0.00,,SKC,0.04,VWS V14.01,2013-02-15 02:42:00,
2013-02-14 20:47:00,13.1,2.9,30.18,North,354,11.0,12.0,63,0.00,,SKC,0.04,VWS V14.01,2013-02-15 02:47:00,
2013-02-14 20:52:00,12.8,2.6,30.18,North,353,4.0,6.0,63,0.00,,SKC,0.04,VWS V14.01,2013-02-15 02:52:00,
2013-02-14 20:57:00,12.4,2.6,30.18,North,356,3.0,10.0,64,0.00,,SKC,0.04,VWS V14.01,2013-02-15 02:57:00,
2013-02-14 21:02:00,12.1,2.3,30.19,North,349,4.0,6.0,64,0.00,,SKC,0.04,VWS V14.01,2013-02-15 03:02:00,
2013-02-14 21:07:00,11.7,1.9,30.19,NNW,343,4.0,6.0,64,0.00,,SKC,0.04,VWS V14.01,2013-02-15 03:07:00,
2013-02-14 21:12:00,11.4,1.9,30.19,NNW,343,3.0,5.0,65,0.00,,SKC,0.04,VWS V14.01,2013-02-15 03:12:00,
2013-02-14 21:17:00,11.2,1.7,30.19,North,352,2.0,8.0,65,0.00,,SKC,0.04,VWS V14.01,2013-02-15 03:17:00,
2013-02-14 21:22:00,10.7,1.6,30.19,North,0,3.0,7.0,66,0.00,,SKC,0.04,VWS V14.01,2013-02-15 03:22:00,
2013-02-14 21:27:00,10.5,1.4,30.19,North,356,5.0,8.0,66,0.00,,SKC,0.04,VWS V14.01,2013-02-15 03:27:00,
2013-02-14 21:32:00,10.2,1.1,30.19,North,350,5.0,9.0,66,0.00,,SKC,0.04,VWS V14.01,2013-02-15 03:32:00,
2013-02-14 21:37:00,9.9,0.8,30.19,North,359,4.0,9.0,66,0.00,,SKC,0.04,VWS V14.01,2013-02-15 03:37:00,
2013-02-14 21:42:00,9.3,0.3,30.19,North,359,5.0,11.0,66,0.00,,SKC,0.04,VWS V14.01,2013-02-15 03:42:00,
2013-02-14 21:47:00,9.2,0.2,30.20,North,3,5.0,12.0,66,0.00,,SKC,0.04,VWS V14.01,2013-02-15 03:47:00,
2013-02-14 21:52:00,9.0,-0.4,30.20,NNW,332,3.0,12.0,65,0.00,,SKC,0.04,VWS V14.01,2013-02-15 03:52:00,
2013-02-14 21:57:00,9.0,-0.4,30.20,NNW,342,7.0,13.0,65,0.00,,SKC,0.04,VWS V14.01,2013-02-15 03:57:00,
2013-02-14 22:02:00,9.0,-0.7,30.20,North,354,7.0,13.0,64,0.00,,SKC,0.04,VWS V14.01,2013-02-15 04:02:00,
2013-02-14 22:07:00,8.8,-1.2,30.20,NNW,346,4.0,13.0,63,0.00,,SKC,0.04,VWS V14.01,2013-02-15 04:07:00,
2013-02-14 22:12:00,8.6,-1.7,30.20,NNW,330,5.0,12.0,62,0.00,,SKC,0.04,VWS V14.01,2013-02-15 04:12:00,
2013-02-14 22:17:00,8.3,-2.0,30.21,North,359,3.0,12.0,62,0.00,,SKC,0.04,VWS V14.01,2013-02-15 04:17:00,
2013-02-14 22:22:00,7.9,-2.4,30.21,North,0,3.0,12.0,62,0.00,,SKC,0.04,VWS V14.01,2013-02-15 04:22:00,
2013-02-14 22:27:00,7.7,-2.6,30.21,NNW,337,7.0,12.0,62,0.00,,SKC,0.04,VWS V14.01,2013-02-15 04:27:00,
2013-02-14 22:32:00,7.7,-2.9,30.21,NNW,335,9.0,9.0,61,0.00,,SKC,0.04,VWS V14.01,2013-02-15 04:32:00,
2013-02-14 22:37:00,7.6,-2.7,30.21,North,349,5.0,11.0,62,0.00,,SKC,0.04,VWS V14.01,2013-02-15 04:37:00,
2013-02-14 22:42:00,7.6,-2.7,30.21,North,352,7.0,10.0,62,0.00,,SKC,0.04,VWS V14.01,2013-02-15 04:42:00,
2013-02-14 22:47:00,7.2,-2.7,30.21,North,0,3.0,11.0,63,0.00,,SKC,0.04,VWS V14.01,2013-02-15 04:47:00,
2013-02-14 22:52:00,7.0,-2.6,30.21,North,356,8.0,8.0,64,0.00,,SKC,0.04,VWS V14.01,2013-02-15 04:52:00,
2013-02-14 22:57:00,7.0,-2.6,30.21,North,356,7.0,11.0,64,0.00,,SKC,0.04,VWS V14.01,2013-02-15 04:57:00,
2013-02-14 23:00:00,7.0,-2.3,30.20,North,356,9.0,11.0,65,0.00,,SKC,0.04,VWS V14.01,2013-02-15 05:00:00,
2013-02-14 23:05:00,7.0,-2.3,30.20,North,0,5.0,13.0,65,0.00,,SKC,0.04,VWS V14.01,2013-02-15 05:05:00,
2013-02-14 23:10:00,6.9,-2.0,30.20,NNW,347,7.0,13.0,66,0.00,,SKC,0.04,VWS V14.01,2013-02-15 05:10:00,
2013-02-14 23:15:00,6.7,-2.2,30.20,North,359,4.0,12.0,66,0.00,,SKC,0.04,VWS V14.01,2013-02-15 05:15:00,
2013-02-14 23:20:00,6.3,-2.3,30.20,NNW,340,8.0,12.0,67,0.00,,SKC,0.04,VWS V14.01,2013-02-15 05:20:00,
2013-02-14 23:25:00,6.1,-2.5,30.20,NNW,340,7.0,11.0,67,0.00,,SKC,0.04,VWS V14.01,2013-02-15 05:25:00,
2013-02-14 23:30:00,6.0,-2.3,30.21,North,356,5.0,11.0,68,0.00,,SKC,0.04,VWS V14.01,2013-02-15 05:30:00,
2013-02-14 23:35:00,6.0,-2.3,30.21,NNW,337,3.0,10.0,68,0.00,,SKC,0.04,VWS V14.01,2013-02-15 05:35:00,
2013-02-14 23:40:00,6.0,-1.7,30.21,North,356,4.0,11.0,70,0.00,,SKC,0.04,VWS V14.01,2013-02-15 05:40:00,
2013-02-14 23:45:00,6.0,-1.7,30.21,North,353,3.0,11.0,70,0.00,,SKC,0.04,VWS V14.01,2013-02-15 05:45:00,
2013-02-14 23:50:00,6.0,-1.7,30.21,NNW,333,3.0,11.0,70,0.00,,SKC,0.04,VWS V14.01,2013-02-15 05:50:00,
2013-02-14 23:55:00,6.0,-1.4,30.21,North,357,5.0,10.0,71,0.00,,SKC,0.04,VWS V14.01,2013-02-15 05:55:00,